Time;durP1;ratioP1;P1;durP2;ratioP2;P2;SDS_P1;SDS_P2;PMS_P1;PMS_P2;Temp;Humidity;BMP_temperature;BMP_pressure;BME280_temperature;BME280_humidity;BME280_pressure;Samples;Min_cycle;Max_cycle;Signal;HPM_P1;HPM_P2
2021/05/07 00:01:27;;;;;;;3.83;1.58;;;;;;;;;;5073381;28;20483;-79
2021/05/07 00:03:53;;;;;;;3.03;1.50;;;;;;;;;;5073339;28;20074;-78
2021/05/07 00:06:19;;;;;;;3.47;2.15;;;;;;;;;;5073209;28;20033;-79
2021/05/07 00:08:45;;;;;;;3.80;1.40;;;;;;;;;;5073537;28;20028;-78
2021/05/07 00:11:18;;;;;;;5.70;2.03;;;;;;;;;;5073254;28;20016;-79
2021/05/07 00:13:45;;;;;;;3.33;1.20;;;;;;;;;;5073445;28;20070;-78
2021/05/07 00:16:11;;;;;;;2.88;1.48;;;;;;;;;;5073129;28;20052;-79
2021/05/07 00:18:38;;;;;;;3.28;1.80;;;;;;;;;;5073394;28;20028;-79
2021/05/07 00:21:05;;;;;;;2.92;1.80;;;;;;;;;;5073140;28;20024;-78
2021/05/07 00:23:31;;;;;;;4.03;2.10;;;;;;;;;;5073206;28;20024;-78
2021/05/07 00:25:57;;;;;;;4.43;1.95;;;;;;;;;;5073051;28;20042;-78
2021/05/07 00:28:23;;;;;;;3.78;1.70;;;;;;;;;;5077099;28;20464;-78
2021/05/07 00:30:50;;;;;;;3.50;2.58;;;;;;;;;;5077225;28;20033;-78
2021/05/07 00:33:16;;;;;;;4.05;1.83;;;;;;;;;;5077144;28;20025;-78
2021/05/07 00:35:43;;;;;;;3.80;1.98;;;;;;;;;;5076906;28;20031;-78
2021/05/07 00:38:09;;;;;;;3.33;1.80;;;;;;;;;;5076980;28;20029;-79
2021/05/07 00:40:35;;;;;;;5.88;2.00;;;;;;;;;;5076977;28;20070;-78
2021/05/07 00:43:01;;;;;;;2.28;1.67;;;;;;;;;;5077002;28;20029;-79
2021/05/07 00:45:27;;;;;;;3.25;1.73;;;;;;;;;;5058837;28;20438;-79
2021/05/07 00:47:58;;;;;;;3.13;1.92;;;;;;;;;;5076925;28;20100;-78
2021/05/07 00:50:28;;;;;;;2.38;1.63;;;;;;;;;;5076787;28;20059;-78
2021/05/07 00:52:58;;;;;;;4.28;1.55;;;;;;;;;;5076972;28;20460;-78
2021/05/07 00:55:25;;;;;;;4.40;1.90;;;;;;;;;;5076725;28;20025;-77
2021/05/07 00:57:52;;;;;;;3.97;2.03;;;;;;;;;;5076834;28;20472;-78
2021/05/07 01:00:18;;;;;;;6.10;1.70;;;;;;;;;;5076629;28;20029;-78
2021/05/07 01:02:44;;;;;;;2.30;1.58;;;;;;;;;;5076691;28;20020;-79
2021/05/07 01:05:11;;;;;;;3.15;1.83;;;;;;;;;;5076557;28;20058;-79
2021/05/07 01:07:37;;;;;;;3.83;1.90;;;;;;;;;;5076605;28;20020;-78
2021/05/07 01:10:07;;;;;;;4.00;1.77;;;;;;;;;;5076395;28;20028;-78
2021/05/07 01:12:35;;;;;;;2.40;1.70;;;;;;;;;;5076593;28;20042;-78
2021/05/07 01:15:01;;;;;;;5.07;2.25;;;;;;;;;;5076341;28;20480;-79
2021/05/07 01:17:28;;;;;;;4.53;2.05;;;;;;;;;;5076362;28;20032;-79
2021/05/07 01:19:54;;;;;;;2.83;1.90;;;;;;;;;;5076325;28;20495;-79
2021/05/07 01:22:20;;;;;;;2.67;1.85;;;;;;;;;;5076432;28;20021;-79
2021/05/07 01:24:46;;;;;;;3.08;1.90;;;;;;;;;;5076082;28;20029;-79
2021/05/07 01:27:12;;;;;;;4.47;2.15;;;;;;;;;;5076030;28;20032;-79
2021/05/07 01:29:39;;;;;;;5.30;2.15;;;;;;;;;;5058101;28;20032;-79
2021/05/07 01:32:05;;;;;;;3.65;1.83;;;;;;;;;;5076033;28;20108;-79
2021/05/07 01:34:31;;;;;;;3.20;2.03;;;;;;;;;;5057989;28;20436;-79
2021/05/07 01:36:57;;;;;;;4.18;2.40;;;;;;;;;;5075793;28;20044;-79
2021/05/07 01:39:23;;;;;;;4.78;2.10;;;;;;;;;;5075232;28;20078;-79
2021/05/07 01:41:49;;;;;;;2.83;1.90;;;;;;;;;;5076006;28;20055;-79
2021/05/07 01:44:15;;;;;;;3.13;2.28;;;;;;;;;;5075688;28;20111;-79
2021/05/07 01:46:41;;;;;;;3.25;1.85;;;;;;;;;;5075748;28;20036;-78
2021/05/07 01:49:08;;;;;;;5.43;2.58;;;;;;;;;;5075873;28;20390;-79
2021/05/07 01:51:34;;;;;;;3.65;2.28;;;;;;;;;;5075711;28;20028;-79
2021/05/07 01:54:00;;;;;;;4.78;2.70;;;;;;;;;;5057574;28;20028;-79
2021/05/07 01:56:26;;;;;;;3.92;2.28;;;;;;;;;;5075612;28;20529;-79
2021/05/07 01:58:52;;;;;;;5.10;2.05;;;;;;;;;;5075559;28;20090;-79
2021/05/07 02:01:18;;;;;;;3.05;1.83;;;;;;;;;;5075623;28;20055;-79
2021/05/07 02:03:44;;;;;;;3.05;2.10;;;;;;;;;;5075499;28;20100;-79
2021/05/07 02:06:11;;;;;;;2.88;1.92;;;;;;;;;;5075237;28;20036;-79
2021/05/07 02:08:37;;;;;;;4.03;2.10;;;;;;;;;;5075421;28;20028;-79
2021/05/07 02:11:03;;;;;;;3.88;3.10;;;;;;;;;;5075286;28;20073;-79
2021/05/07 02:13:29;;;;;;;5.70;2.10;;;;;;;;;;5075259;28;20033;-78
2021/05/07 02:15:55;;;;;;;5.68;2.58;;;;;;;;;;5075375;28;20476;-79
2021/05/07 02:18:25;;;;;;;3.53;2.05;;;;;;;;;;5057247;28;20111;-79
2021/05/07 02:20:53;;;;;;;7.25;2.47;;;;;;;;;;5075255;28;20063;-79
2021/05/07 02:23:20;;;;;;;4.07;2.55;;;;;;;;;;5075159;28;20085;-78
2021/05/07 02:25:46;;;;;;;3.25;2.17;;;;;;;;;;5075001;28;20150;-79
2021/05/07 02:28:12;;;;;;;4.30;2.17;;;;;;;;;;5074895;28;20403;-78
2021/05/07 02:30:38;;;;;;;4.70;2.50;;;;;;;;;;5075220;28;20054;-79
2021/05/07 02:33:04;;;;;;;4.45;2.70;;;;;;;;;;5057325;28;20025;-78
2021/05/07 02:35:32;;;;;;;3.65;2.15;;;;;;;;;;5074874;28;20047;-79
2021/05/07 02:37:58;;;;;;;3.92;2.40;;;;;;;;;;5074550;28;20055;-78
2021/05/07 02:40:24;;;;;;;5.85;3.22;;;;;;;;;;5074827;28;20442;-78
2021/05/07 02:42:51;;;;;;;4.53;2.10;;;;;;;;;;5074953;28;20028;-78
2021/05/07 02:45:18;;;;;;;4.38;2.40;;;;;;;;;;5074465;28;20044;-78
2021/05/07 02:47:44;;;;;;;4.55;2.25;;;;;;;;;;5074597;28;20028;-79
2021/05/07 02:50:11;;;;;;;3.88;2.28;;;;;;;;;;5073671;28;20021;-79
2021/05/07 02:52:37;;;;;;;3.55;2.22;;;;;;;;;;5056617;28;20032;-79
2021/05/07 02:55:04;;;;;;;3.25;2.38;;;;;;;;;;5074428;28;20139;-79
2021/05/07 02:57:30;;;;;;;4.43;2.40;;;;;;;;;;5074391;28;20024;-79
2021/05/07 02:59:56;;;;;;;3.25;2.45;;;;;;;;;;5074346;28;20029;-79
2021/05/07 03:02:22;;;;;;;4.97;2.30;;;;;;;;;;5074333;28;20028;-79
2021/05/07 03:04:49;;;;;;;3.35;2.35;;;;;;;;;;5074259;28;20383;-78
2021/05/07 03:07:15;;;;;;;3.42;2.28;;;;;;;;;;5056541;28;20387;-78
2021/05/07 03:09:41;;;;;;;4.53;2.60;;;;;;;;;;5074666;28;20040;-80
2021/05/07 03:12:07;;;;;;;6.38;2.45;;;;;;;;;;5074322;28;20029;-79
2021/05/07 03:14:33;;;;;;;4.18;2.53;;;;;;;;;;5074069;28;20021;-78
2021/05/07 03:16:59;;;;;;;7.35;2.97;;;;;;;;;;5074011;28;20036;-79
2021/05/07 03:19:25;;;;;;;5.35;2.72;;;;;;;;;;5074110;28;20036;-80
2021/05/07 03:21:59;;;;;;;6.15;2.78;;;;;;;;;;5111358;27;20852;-78
2021/05/07 03:24:25;;;;;;;6.88;3.25;;;;;;;;;;5111349;28;20032;-79
2021/05/07 03:26:51;;;;;;;4.78;2.60;;;;;;;;;;5111289;28;20024;-79
2021/05/07 03:29:18;;;;;;;6.47;3.17;;;;;;;;;;5111433;28;20491;-79
2021/05/07 03:31:44;;;;;;;4.53;2.95;;;;;;;;;;5111234;28;20028;-79
2021/05/07 03:34:10;;;;;;;4.82;3.42;;;;;;;;;;5111202;28;20023;-79
2021/05/07 03:36:36;;;;;;;4.65;2.70;;;;;;;;;;5111235;28;20026;-79
2021/05/07 03:39:02;;;;;;;3.38;2.80;;;;;;;;;;5111053;28;20098;-78
2021/05/07 03:41:30;;;;;;;3.80;2.67;;;;;;;;;;5111296;28;20060;-79
2021/05/07 03:43:56;;;;;;;5.90;3.03;;;;;;;;;;5111151;28;20055;-78
2021/05/07 03:46:22;;;;;;;9.45;3.67;;;;;;;;;;5110927;28;20186;-78
2021/05/07 03:48:48;;;;;;;7.15;2.95;;;;;;;;;;5110888;28;20535;-79
2021/05/07 03:51:15;;;;;;;4.07;2.30;;;;;;;;;;5110812;28;20482;-79
2021/05/07 03:53:41;;;;;;;3.88;2.80;;;;;;;;;;5109511;28;20391;-78
2021/05/07 03:56:07;;;;;;;5.30;3.30;;;;;;;;;;5110922;28;20028;-78
2021/05/07 03:58:33;;;;;;;7.57;3.42;;;;;;;;;;5110741;28;20058;-79
2021/05/07 04:00:59;;;;;;;6.57;2.90;;;;;;;;;;5110215;28;20036;-79
2021/05/07 04:03:25;;;;;;;6.82;3.20;;;;;;;;;;5110649;28;20081;-79
2021/05/07 04:05:54;;;;;;;10.18;3.15;;;;;;;;;;5110457;28;20024;-79
2021/05/07 04:08:26;;;;;;;7.45;3.00;;;;;;;;;;5110578;28;20079;-78
2021/05/07 04:13:48;;;;;;;7.78;3.45;;;;;;;;;;5105501;28;20039;-79
2021/05/07 04:16:14;;;;;;;6.60;3.10;;;;;;;;;;5110381;28;20020;-79
2021/05/07 04:18:40;;;;;;;6.22;4.07;;;;;;;;;;5110516;28;20035;-78
2021/05/07 04:21:06;;;;;;;6.18;4.68;;;;;;;;;;5110183;28;20048;-79
2021/05/07 04:23:32;;;;;;;6.55;3.33;;;;;;;;;;5110248;28;20027;-78
2021/05/07 04:26:00;;;;;;;8.13;3.45;;;;;;;;;;5110131;28;20463;-78
2021/05/07 04:28:26;;;;;;;5.93;3.15;;;;;;;;;;5110206;28;20020;-78
2021/05/07 04:30:52;;;;;;;4.57;3.00;;;;;;;;;;5109998;28;20032;-78
2021/05/07 04:33:18;;;;;;;5.80;3.38;;;;;;;;;;5096637;28;20028;-78
2021/05/07 04:35:45;;;;;;;5.60;2.80;;;;;;;;;;5096405;28;20028;-79
2021/05/07 04:38:11;;;;;;;7.97;3.60;;;;;;;;;;5096478;28;20032;-78
2021/05/07 04:40:37;;;;;;;5.57;3.30;;;;;;;;;;5096256;28;20105;-78
2021/05/07 04:43:04;;;;;;;21.65;7.20;;;;;;;;;;5096195;28;20024;-78
2021/05/07 04:45:31;;;;;;;7.95;3.67;;;;;;;;;;5096203;28;20040;-79
2021/05/07 04:47:57;;;;;;;5.53;3.95;;;;;;;;;;5096128;28;20024;-78
2021/05/07 04:50:24;;;;;;;7.88;4.13;;;;;;;;;;5096073;28;20024;-79
2021/05/07 04:52:50;;;;;;;7.05;3.50;;;;;;;;;;5096117;28;20028;-78
2021/05/07 04:55:16;;;;;;;7.90;3.50;;;;;;;;;;5096180;28;20028;-78
2021/05/07 04:57:42;;;;;;;7.85;3.65;;;;;;;;;;5095784;28;20054;-78
2021/05/07 05:00:09;;;;;;;5.40;2.92;;;;;;;;;;5095923;28;20115;-79
2021/05/07 05:02:35;;;;;;;8.20;3.72;;;;;;;;;;5096127;28;20028;-78
2021/05/07 05:05:05;;;;;;;5.57;3.20;;;;;;;;;;5095517;28;20058;-78
2021/05/07 05:07:31;;;;;;;5.63;3.40;;;;;;;;;;5095957;28;20020;-80
2021/05/07 05:09:57;;;;;;;6.13;3.38;;;;;;;;;;5095873;28;20031;-81
2021/05/07 05:12:23;;;;;;;6.88;3.72;;;;;;;;;;5095552;28;20028;-77
2021/05/07 05:14:50;;;;;;;5.75;3.55;;;;;;;;;;5095759;28;20062;-78
2021/05/07 05:17:16;;;;;;;4.88;3.90;;;;;;;;;;5095537;28;20497;-81
2021/05/07 05:19:42;;;;;;;10.13;4.20;;;;;;;;;;5095165;28;20046;-79
2021/05/07 05:22:08;;;;;;;6.05;3.65;;;;;;;;;;5095478;28;20097;-81
2021/05/07 05:24:34;;;;;;;6.53;4.43;;;;;;;;;;5095393;28;20568;-78
2021/05/07 05:27:00;;;;;;;11.30;4.32;;;;;;;;;;5095283;28;20486;-77
2021/05/07 05:29:27;;;;;;;5.82;3.60;;;;;;;;;;5094716;28;20541;-75
2021/05/07 05:31:53;;;;;;;7.20;3.97;;;;;;;;;;5093876;28;20439;-77
2021/05/07 05:34:20;;;;;;;6.90;3.55;;;;;;;;;;5094881;28;20020;-77
2021/05/07 05:36:46;;;;;;;9.05;3.15;;;;;;;;;;5094517;28;20099;-78
2021/05/07 05:39:16;;;;;;;7.07;3.10;;;;;;;;;;5091669;28;20414;-79
2021/05/07 05:41:42;;;;;;;7.90;3.40;;;;;;;;;;5093267;28;20115;-79
2021/05/07 05:44:09;;;;;;;6.95;4.00;;;;;;;;;;5092342;28;20023;-78
2021/05/07 05:46:38;;;;;;;4.78;3.80;;;;;;;;;;5092564;28;20036;-79
2021/05/07 05:49:05;;;;;;;5.63;3.33;;;;;;;;;;5092379;28;20036;-80
2021/05/07 05:51:31;;;;;;;5.50;3.30;;;;;;;;;;5092131;28;20024;-77
2021/05/07 05:53:57;;;;;;;6.07;4.15;;;;;;;;;;5091248;28;20031;-78
2021/05/07 05:56:23;;;;;;;5.00;3.15;;;;;;;;;;5092506;28;20028;-78
2021/05/07 05:58:49;;;;;;;7.25;2.90;;;;;;;;;;5091989;28;20390;-79
2021/05/07 06:01:15;;;;;;;5.53;3.00;;;;;;;;;;5092399;28;20526;-78
2021/05/07 06:03:42;;;;;;;8.27;2.80;;;;;;;;;;5092401;28;20024;-78
2021/05/07 06:06:08;;;;;;;5.10;3.30;;;;;;;;;;5092572;28;20032;-79
2021/05/07 06:08:34;;;;;;;7.95;2.75;;;;;;;;;;5091570;28;20028;-78
2021/05/07 06:11:00;;;;;;;8.18;2.70;;;;;;;;;;5091962;28;20407;-77
2021/05/07 06:13:26;;;;;;;7.18;3.05;;;;;;;;;;5092119;28;20028;-77
2021/05/07 06:15:52;;;;;;;6.47;3.45;;;;;;;;;;5092019;28;20035;-80
2021/05/07 06:18:18;;;;;;;6.68;3.90;;;;;;;;;;5092529;28;20048;-78
2021/05/07 06:20:44;;;;;;;6.65;4.15;;;;;;;;;;5091348;28;20055;-79
2021/05/07 06:23:11;;;;;;;10.80;4.63;;;;;;;;;;5091877;28;20110;-78
2021/05/07 06:25:38;;;;;;;7.93;3.63;;;;;;;;;;5091842;28;20030;-79
2021/05/07 06:28:04;;;;;;;7.50;4.05;;;;;;;;;;5092042;28;20020;-77
2021/05/07 06:30:30;;;;;;;8.32;4.65;;;;;;;;;;5091835;28;20467;-77
2021/05/07 06:32:56;;;;;;;8.88;3.55;;;;;;;;;;5091823;28;20540;-78
2021/05/07 06:35:22;;;;;;;5.85;3.25;;;;;;;;;;5091930;28;20020;-78
2021/05/07 06:37:48;;;;;;;7.90;4.05;;;;;;;;;;5091150;28;20085;-78
2021/05/07 06:40:15;;;;;;;6.97;3.47;;;;;;;;;;5091409;28;20511;-78
2021/05/07 06:42:41;;;;;;;6.55;3.15;;;;;;;;;;5091446;28;20034;-78
2021/05/07 06:45:08;;;;;;;6.05;2.50;;;;;;;;;;5091694;28;20070;-78
2021/05/07 06:47:34;;;;;;;4.72;3.05;;;;;;;;;;5090515;28;20026;-80
2021/05/07 06:50:01;;;;;;;8.45;2.65;;;;;;;;;;5091574;28;20767;-79
2021/05/07 06:52:27;;;;;;;6.38;2.88;;;;;;;;;;5091551;28;20493;-78
2021/05/07 06:54:53;;;;;;;6.07;2.70;;;;;;;;;;5090843;28;20058;-78
2021/05/07 06:57:19;;;;;;;20.30;3.83;;;;;;;;;;5091318;28;20092;-79
2021/05/07 06:59:51;;;;;;;7.63;3.35;;;;;;;;;;5090826;28;20078;-78
2021/05/07 07:02:17;;;;;;;6.03;2.90;;;;;;;;;;5091189;28;20483;-78
2021/05/07 07:04:45;;;;;;;9.43;2.60;;;;;;;;;;5090972;28;20035;-78
2021/05/07 07:07:12;;;;;;;8.88;3.67;;;;;;;;;;5091248;28;20020;-81
2021/05/07 07:09:38;;;;;;;6.65;2.97;;;;;;;;;;5090981;28;20039;-78
2021/05/07 07:12:04;;;;;;;3.80;2.25;;;;;;;;;;5091034;28;20803;-79
2021/05/07 07:14:30;;;;;;;8.85;3.28;;;;;;;;;;5091172;28;20028;-80
2021/05/07 07:16:56;;;;;;;4.00;2.97;;;;;;;;;;5090867;28;20039;-78
2021/05/07 07:19:22;;;;;;;5.70;2.90;;;;;;;;;;5091169;28;20028;-78
2021/05/07 07:21:48;;;;;;;4.35;2.50;;;;;;;;;;5090489;28;20437;-78
2021/05/07 07:24:15;;;;;;;8.52;3.00;;;;;;;;;;5091128;28;20109;-77
2021/05/07 07:26:41;;;;;;;4.65;1.85;;;;;;;;;;5091071;28;20028;-79
2021/05/07 07:29:07;;;;;;;25.75;19.02;;;;;;;;;;5090917;28;20028;-79
2021/05/07 07:31:33;;;;;;;33.20;5.95;;;;;;;;;;5091139;28;20035;-79
2021/05/07 07:33:59;;;;;;;26.50;6.40;;;;;;;;;;5090870;28;20024;-80
2021/05/07 07:36:26;;;;;;;11.05;3.80;;;;;;;;;;5091019;28;20038;-78
2021/05/07 07:38:52;;;;;;;4.15;2.15;;;;;;;;;;5090468;28;20421;-78
2021/05/07 07:41:18;;;;;;;4.40;1.90;;;;;;;;;;5070439;28;20533;-81
2021/05/07 07:43:44;;;;;;;4.90;2.40;;;;;;;;;;5070707;28;20079;-79
2021/05/07 07:46:10;;;;;;;7.78;2.55;;;;;;;;;;5070723;28;20058;-79
2021/05/07 07:48:36;;;;;;;6.20;2.53;;;;;;;;;;5070577;28;20033;-79
2021/05/07 07:51:02;;;;;;;6.40;2.42;;;;;;;;;;5070596;28;20365;-77
2021/05/07 07:53:28;;;;;;;8.15;2.35;;;;;;;;;;5069219;28;20025;-79
2021/05/07 07:55:54;;;;;;;4.07;2.30;;;;;;;;;;5070406;28;20021;-79
2021/05/07 07:58:21;;;;;;;7.45;2.90;;;;;;;;;;5070752;28;20097;-79
2021/05/07 08:00:47;;;;;;;5.30;2.25;;;;;;;;;;5070556;28;20119;-79
2021/05/07 08:03:14;;;;;;;7.30;2.80;;;;;;;;;;5070407;28;20040;-78
2021/05/07 08:05:40;;;;;;;4.15;2.40;;;;;;;;;;5070470;28;20025;-79
2021/05/07 08:08:06;;;;;;;4.32;2.47;;;;;;;;;;5072877;28;20032;-78
2021/05/07 08:10:32;;;;;;;6.80;3.47;;;;;;;;;;5074103;28;20099;-77
2021/05/07 08:12:58;;;;;;;5.75;2.97;;;;;;;;;;5074290;28;20475;-79
2021/05/07 08:15:26;;;;;;;6.95;2.72;;;;;;;;;;5077177;28;20515;-82
2021/05/07 08:17:54;;;;;;;4.68;2.28;;;;;;;;;;5094333;28;20064;-81
2021/05/07 08:20:21;;;;;;;4.97;2.35;;;;;;;;;;5093867;28;20540;-80
2021/05/07 08:22:47;;;;;;;17.75;2.75;;;;;;;;;;5094291;28;21143;-80
2021/05/07 08:25:13;;;;;;;12.15;2.88;;;;;;;;;;5093946;28;20107;-80
2021/05/07 08:27:42;;;;;;;5.45;1.90;;;;;;;;;;5094021;28;20098;-79
2021/05/07 08:30:10;;;;;;;3.03;1.50;;;;;;;;;;5094059;28;20024;-78
2021/05/07 08:32:36;;;;;;;10.80;4.22;;;;;;;;;;5094130;28;20051;-79
2021/05/07 08:35:02;;;;;;;6.28;2.70;;;;;;;;;;5093442;28;20028;-79
2021/05/07 08:37:28;;;;;;;9.02;3.90;;;;;;;;;;5094481;28;20020;-79
2021/05/07 08:39:55;;;;;;;9.43;6.63;;;;;;;;;;5094130;28;20026;-80
2021/05/07 08:42:21;;;;;;;25.30;19.58;;;;;;;;;;5094420;28;20035;-80
2021/05/07 08:44:50;;;;;;;7.53;5.53;;;;;;;;;;5094492;28;20028;-79
2021/05/07 08:47:17;;;;;;;9.35;4.57;;;;;;;;;;5094522;28;20111;-79
2021/05/07 08:49:46;;;;;;;7.50;3.45;;;;;;;;;;5094383;28;20080;-74
2021/05/07 08:52:12;;;;;;;9.75;5.70;;;;;;;;;;5093264;28;20485;-79
2021/05/07 08:54:38;;;;;;;14.50;8.68;;;;;;;;;;5094212;28;20031;-79
2021/05/07 08:57:05;;;;;;;7.90;4.70;;;;;;;;;;5094357;28;20471;-79
2021/05/07 08:59:33;;;;;;;7.97;4.75;;;;;;;;;;5094107;28;20056;-79
2021/05/07 09:01:59;;;;;;;6.18;4.13;;;;;;;;;;5094002;28;20490;-77
2021/05/07 09:04:26;;;;;;;7.90;2.40;;;;;;;;;;5093346;28;20028;-78
2021/05/07 09:06:53;;;;;;;4.25;1.63;;;;;;;;;;5093433;28;20043;-78
2021/05/07 09:09:22;;;;;;;15.63;12.10;;;;;;;;;;5093611;28;20028;-78
2021/05/07 09:11:48;;;;;;;56.00;19.42;;;;;;;;;;5093229;28;20040;-79
2021/05/07 09:14:14;;;;;;;11.32;7.60;;;;;;;;;;5093106;28;20110;-78
2021/05/07 09:16:52;;;;;;;10.75;6.35;;;;;;;;;;5090252;28;20020;-78
2021/05/07 09:19:22;;;;;;;6.57;2.47;;;;;;;;;;5092579;28;20054;-79
2021/05/07 09:21:49;;;;;;;4.40;1.65;;;;;;;;;;5091459;28;20088;-78
2021/05/07 09:24:15;;;;;;;9.35;8.10;;;;;;;;;;5092931;28;20028;-79
2021/05/07 09:26:48;;;;;;;3.90;2.15;;;;;;;;;;5093000;28;20032;-79
2021/05/07 09:29:21;;;;;;;6.90;2.67;;;;;;;;;;5092840;28;20596;-78
2021/05/07 09:31:49;;;;;;;4.53;1.88;;;;;;;;;;5092956;28;20039;-79
2021/05/07 09:34:16;;;;;;;3.67;1.70;;;;;;;;;;5092853;28;20036;-79
2021/05/07 09:36:42;;;;;;;12.10;9.25;;;;;;;;;;5092620;28;20024;-79
2021/05/07 09:39:15;;;;;;;6.38;2.50;;;;;;;;;;5092523;28;20028;-79
2021/05/07 09:41:42;;;;;;;3.83;1.67;;;;;;;;;;5092173;28;20070;-79
2021/05/07 09:44:28;;;;;;;4.03;2.00;;;;;;;;;;5091471;28;20023;-79
2021/05/07 09:46:55;;;;;;;3.78;1.77;;;;;;;;;;5091916;28;20027;-78
2021/05/07 09:49:29;;;;;;;8.40;2.08;;;;;;;;;;5091522;28;20070;-78
2021/05/07 09:51:55;;;;;;;;;;;;;;;;;;5091145;28;20103;-78
2021/05/07 09:54:22;;;;;;;3.95;1.50;;;;;;;;;;5074290;28;19904;-80
2021/05/07 09:56:48;;;;;;;4.50;1.67;;;;;;;;;;5084348;28;20032;-80
2021/05/07 09:59:15;;;;;;;3.05;1.85;;;;;;;;;;5091575;28;20043;-80
2021/05/07 10:01:44;;;;;;;4.30;2.85;;;;;;;;;;5092196;28;20040;-79
2021/05/07 10:04:11;;;;;;;3.55;1.95;;;;;;;;;;5090267;28;20063;-79
2021/05/07 10:06:37;;;;;;;4.65;2.05;;;;;;;;;;5088552;28;20491;-79
2021/05/07 10:09:04;;;;;;;5.15;1.75;;;;;;;;;;5092135;28;20024;-78
2021/05/07 10:11:43;;;;;;;5.15;2.30;;;;;;;;;;5092323;28;20035;-80
2021/05/07 10:14:12;;;;;;;16.08;5.60;;;;;;;;;;5089660;28;20032;-80
2021/05/07 10:16:39;;;;;;;6.57;2.10;;;;;;;;;;5091151;28;20046;-80
2021/05/07 10:19:12;;;;;;;5.35;2.10;;;;;;;;;;5091661;28;20654;-79
2021/05/07 10:21:40;;;;;;;6.07;2.20;;;;;;;;;;5091148;28;20135;-79
2021/05/07 10:24:07;;;;;;;3.67;1.90;;;;;;;;;;5090876;28;20533;-79
2021/05/07 10:26:34;;;;;;;5.13;1.77;;;;;;;;;;5089968;28;20059;-78
2021/05/07 10:29:01;;;;;;;3.63;1.48;;;;;;;;;;5089033;28;20032;-79
2021/05/07 10:31:27;;;;;;;3.65;1.63;;;;;;;;;;5079694;28;20103;-79
2021/05/07 10:33:59;;;;;;;3.20;1.45;;;;;;;;;;5082798;28;20545;-79
2021/05/07 10:36:44;;;;;;;4.63;1.85;;;;;;;;;;5078176;28;20058;-81
2021/05/07 10:39:16;;;;;;;7.18;2.00;;;;;;;;;;5073682;28;20020;-82
2021/05/07 10:41:42;;;;;;;7.70;1.90;;;;;;;;;;5091450;28;20040;-78
2021/05/07 10:44:09;;;;;;;12.57;2.97;;;;;;;;;;5090200;28;20111;-78
2021/05/07 10:46:36;;;;;;;3.08;2.13;;;;;;;;;;5090848;28;20047;-77
2021/05/07 10:49:02;;;;;;;3.95;1.80;;;;;;;;;;5091567;28;20099;-78
2021/05/07 10:51:28;;;;;;;3.88;1.42;;;;;;;;;;5086886;28;20035;-78
2021/05/07 10:54:24;;;;;;;6.05;1.80;;;;;;;;;;5091022;28;20058;-79
2021/05/07 10:56:50;;;;;;;4.22;1.45;;;;;;;;;;5073705;28;20043;-79
2021/05/07 10:59:34;;;;;;;3.38;1.30;;;;;;;;;;5091178;28;20133;-79
2021/05/07 11:02:01;;;;;;;6.53;1.70;;;;;;;;;;5090790;28;20126;-79
2021/05/07 11:04:28;;;;;;;3.78;1.80;;;;;;;;;;5089427;28;20095;-82
2021/05/07 11:07:01;;;;;;;4.20;1.65;;;;;;;;;;5086029;28;20471;-81
2021/05/07 11:09:27;;;;;;;4.53;1.60;;;;;;;;;;5088002;28;20413;-81
2021/05/07 11:11:54;;;;;;;6.32;1.83;;;;;;;;;;5090697;28;20031;-81
2021/05/07 11:14:42;;;;;;;4.70;1.52;;;;;;;;;;5090810;28;20032;-80
2021/05/07 11:17:16;;;;;;;5.50;1.90;;;;;;;;;;5090699;28;20031;-81
2021/05/07 11:19:43;;;;;;;4.38;1.60;;;;;;;;;;5085147;28;20094;-81
2021/05/07 11:22:10;;;;;;;3.13;1.80;;;;;;;;;;5083324;28;20082;-82
2021/05/07 11:24:37;;;;;;;5.90;2.17;;;;;;;;;;5079285;28;20081;-81
2021/05/07 11:27:22;;;;;;;5.20;1.73;;;;;;;;;;5080394;28;20433;-81
2021/05/07 11:29:52;;;;;;;3.47;2.08;;;;;;;;;;5091182;28;20024;-81
2021/05/07 11:32:23;;;;;;;5.68;2.47;;;;;;;;;;5074867;28;20032;-82
2021/05/07 11:34:51;;;;;;;8.63;1.15;;;;;;;;;;5071110;28;20119;-84
2021/05/07 11:37:17;;;;;;;4.57;1.25;;;;;;;;;;5072520;28;20036;-81
2021/05/07 11:39:43;;;;;;;4.05;1.17;;;;;;;;;;5083959;28;20486;-82
2021/05/07 11:42:10;;;;;;;9.00;1.63;;;;;;;;;;5074576;28;20043;-82
2021/05/07 11:44:47;;;;;;;4.07;1.63;;;;;;;;;;5074942;28;20029;-80
2021/05/07 11:47:13;;;;;;;3.17;0.95;;;;;;;;;;5074542;28;20398;-79
2021/05/07 11:49:44;;;;;;;4.40;1.23;;;;;;;;;;5079454;28;20039;-80
2021/05/07 11:52:10;;;;;;;23.60;2.15;;;;;;;;;;5094732;28;20027;-81
2021/05/07 11:54:44;;;;;;;3.47;1.55;;;;;;;;;;5087644;28;20056;-80
2021/05/07 11:57:11;;;;;;;4.40;1.05;;;;;;;;;;5078605;28;20032;-79
2021/05/07 11:59:56;;;;;;;7.07;1.50;;;;;;;;;;5093925;28;20479;-79
2021/05/07 12:02:22;;;;;;;2.83;1.15;;;;;;;;;;5094303;28;20028;-79
2021/05/07 12:04:49;;;;;;;4.15;1.20;;;;;;;;;;5094565;28;20028;-79
2021/05/07 12:07:24;;;;;;;8.32;1.85;;;;;;;;;;5074837;28;20067;-79
2021/05/07 12:09:51;;;;;;;19.83;10.18;;;;;;;;;;5089726;28;20032;-78
2021/05/07 12:12:17;;;;;;;4.88;2.33;;;;;;;;;;5074305;28;20103;-79
2021/05/07 12:17:38;;;;;;;2.15;1.40;;;;;;;;;;5078071;28;20035;-79
2021/05/07 12:20:05;;;;;;;3.10;1.27;;;;;;;;;;5091358;28;20113;-79
2021/05/07 12:22:34;;;;;;;5.28;1.40;;;;;;;;;;5079646;28;20032;-80
2021/05/07 12:25:07;;;;;;;6.45;3.58;;;;;;;;;;5079966;28;20514;-79
2021/05/07 12:27:39;;;;;;;4.20;2.00;;;;;;;;;;5075572;28;20075;-80
2021/05/07 12:30:24;;;;;;;7.57;4.43;;;;;;;;;;5085772;28;20032;-79
2021/05/07 12:33:09;;;;;;;7.53;3.47;;;;;;;;;;5081454;28;20283;-81
2021/05/07 12:35:55;;;;;;;10.23;4.07;;;;;;;;;;5091776;28;20031;-82
2021/05/07 12:38:38;;;;;;;7.72;2.97;;;;;;;;;;5092461;28;20119;-84
2021/05/07 12:41:07;;;;;;;7.45;3.20;;;;;;;;;;5093887;28;20051;-83
2021/05/07 12:43:35;;;;;;;5.55;1.42;;;;;;;;;;5093792;28;20028;-79
2021/05/07 12:46:01;;;;;;;4.55;1.55;;;;;;;;;;5093346;28;20036;-82
2021/05/07 12:48:27;;;;;;;4.53;1.20;;;;;;;;;;5093708;28;20111;-80
2021/05/07 12:50:53;;;;;;;7.97;1.90;;;;;;;;;;5094008;28;20031;-81
2021/05/07 12:53:21;;;;;;;4.82;1.30;;;;;;;;;;5094704;28;20032;-81
2021/05/07 12:55:47;;;;;;;3.35;1.40;;;;;;;;;;5094875;28;20039;-78
2021/05/07 12:58:13;;;;;;;5.63;3.10;;;;;;;;;;5095016;28;20032;-82
2021/05/07 13:00:43;;;;;;;9.80;5.22;;;;;;;;;;5094633;28;20043;-82
2021/05/07 13:03:10;;;;;;;23.73;5.03;;;;;;;;;;5092506;28;20498;-82
2021/05/07 13:05:37;;;;;;;8.15;2.28;;;;;;;;;;5080009;28;20043;-81
2021/05/07 13:08:03;;;;;;;6.07;2.60;;;;;;;;;;5074451;28;20039;-82
2021/05/07 13:10:29;;;;;;;6.50;2.05;;;;;;;;;;5082754;28;20031;-81
2021/05/07 13:12:56;;;;;;;3.88;0.80;;;;;;;;;;5075228;28;20078;-82
2021/05/07 13:15:23;;;;;;;3.10;0.90;;;;;;;;;;5073194;28;20052;-81
2021/05/07 13:17:49;;;;;;;3.08;0.93;;;;;;;;;;5073764;28;20037;-81
2021/05/07 13:20:16;;;;;;;8.65;1.50;;;;;;;;;;5072559;28;20075;-82
2021/05/07 13:22:42;;;;;;;3.50;1.40;;;;;;;;;;5077237;28;20055;-80
2021/05/07 13:25:08;;;;;;;5.50;0.90;;;;;;;;;;5093640;28;20020;-80
2021/05/07 13:27:35;;;;;;;4.72;0.98;;;;;;;;;;5094444;28;20543;-79
2021/05/07 13:30:01;;;;;;;2.67;0.70;;;;;;;;;;5087557;28;20040;-80
2021/05/07 13:32:31;;;;;;;21.30;2.30;;;;;;;;;;5077577;28;20487;-79
2021/05/07 13:34:57;;;;;;;4.32;1.13;;;;;;;;;;5073886;28;20033;-81
2021/05/07 13:37:23;;;;;;;3.28;0.95;;;;;;;;;;5074029;28;20428;-81
2021/05/07 13:39:49;;;;;;;5.40;1.23;;;;;;;;;;5072750;28;20090;-80
2021/05/07 13:42:15;;;;;;;4.93;1.50;;;;;;;;;;5072027;28;20725;-80
2021/05/07 13:44:41;;;;;;;8.18;5.43;;;;;;;;;;5073309;28;20394;-80
2021/05/07 13:47:07;;;;;;;13.63;2.88;;;;;;;;;;5073349;28;20044;-80
2021/05/07 13:49:33;;;;;;;7.28;4.55;;;;;;;;;;5072448;28;20104;-79
2021/05/07 13:52:00;;;;;;;14.98;2.00;;;;;;;;;;5073306;28;20144;-80
2021/05/07 13:54:27;;;;;;;5.32;1.50;;;;;;;;;;5073897;28;20028;-79
2021/05/07 13:56:54;;;;;;;3.78;1.08;;;;;;;;;;5078777;28;20502;-80
2021/05/07 13:59:20;;;;;;;33.85;4.18;;;;;;;;;;5091311;28;20562;-79
2021/05/07 14:01:47;;;;;;;3.97;0.90;;;;;;;;;;5075277;28;20048;-81
2021/05/07 14:04:13;;;;;;;5.07;1.10;;;;;;;;;;5072807;28;20034;-80
2021/05/07 14:06:40;;;;;;;5.75;1.30;;;;;;;;;;5082116;28;20032;-80
2021/05/07 14:09:07;;;;;;;3.35;1.13;;;;;;;;;;5073242;28;20086;-80
2021/05/07 14:11:34;;;;;;;6.03;1.15;;;;;;;;;;5073502;28;20101;-80
2021/05/07 14:14:00;;;;;;;4.93;1.58;;;;;;;;;;5073159;28;20024;-80
2021/05/07 14:16:26;;;;;;;2.80;1.08;;;;;;;;;;5073086;28;20024;-80
2021/05/07 14:18:52;;;;;;;6.95;2.15;;;;;;;;;;5071496;28;20112;-80
2021/05/07 14:21:18;;;;;;;14.20;2.92;;;;;;;;;;5078950;28;20047;-80
2021/05/07 14:23:46;;;;;;;9.70;3.88;;;;;;;;;;5083931;28;20475;-80
2021/05/07 14:26:13;;;;;;;4.43;1.70;;;;;;;;;;5083468;28;20036;-81
2021/05/07 14:28:39;;;;;;;2.03;0.73;;;;;;;;;;5079503;28;20059;-81
2021/05/07 14:31:05;;;;;;;13.50;1.70;;;;;;;;;;5072813;28;20487;-81
2021/05/07 14:33:31;;;;;;;5.70;1.02;;;;;;;;;;5073832;28;20031;-79
2021/05/07 14:35:57;;;;;;;3.47;1.38;;;;;;;;;;5082003;28;20028;-81
2021/05/07 14:38:23;;;;;;;10.57;1.52;;;;;;;;;;5076689;28;20037;-80
2021/05/07 14:40:49;;;;;;;4.38;1.02;;;;;;;;;;5073715;28;20154;-79
2021/05/07 14:43:15;;;;;;;3.85;1.23;;;;;;;;;;5084142;28;20016;-78
2021/05/07 14:45:41;;;;;;;2.58;1.05;;;;;;;;;;5093926;28;20035;-80
2021/05/07 14:48:08;;;;;;;4.82;1.10;;;;;;;;;;5092698;28;20116;-80
2021/05/07 14:50:34;;;;;;;7.22;1.38;;;;;;;;;;5092527;28;20107;-80